sensor_id;sensor_type;location;lat;lon;timestamp;P1;durP1;ratioP1;P2;durP2;ratioP2
26319;SDS011;14024;52.226;5.200;2023-05-20T00:02:14;13.40;;;6.03;;
26319;SDS011;14024;52.226;5.200;2023-05-20T00:04:40;12.15;;;5.90;;
26319;SDS011;14024;52.226;5.200;2023-05-20T00:07:07;19.45;;;6.68;;
26319;SDS011;14024;52.226;5.200;2023-05-20T00:09:33;11.80;;;6.32;;
26319;SDS011;14024;52.226;5.200;2023-05-20T00:11:59;14.57;;;6.65;;
26319;SDS011;14024;52.226;5.200;2023-05-20T00:14:26;14.63;;;6.20;;
26319;SDS011;14024;52.226;5.200;2023-05-20T00:16:52;15.32;;;6.10;;
26319;SDS011;14024;52.226;5.200;2023-05-20T00:19:18;16.63;;;6.35;;
26319;SDS011;14024;52.226;5.200;2023-05-20T00:21:44;14.07;;;6.10;;
26319;SDS011;14024;52.226;5.200;2023-05-20T00:24:10;15.88;;;6.63;;
26319;SDS011;14024;52.226;5.200;2023-05-20T00:26:36;17.50;;;6.68;;
26319;SDS011;14024;52.226;5.200;2023-05-20T00:29:02;15.73;;;6.60;;
26319;SDS011;14024;52.226;5.200;2023-05-20T00:31:28;19.23;;;6.97;;
26319;SDS011;14024;52.226;5.200;2023-05-20T00:33:54;15.32;;;7.25;;
26319;SDS011;14024;52.226;5.200;2023-05-20T00:36:20;18.13;;;7.70;;
26319;SDS011;14024;52.226;5.200;2023-05-20T00:38:46;19.58;;;6.80;;
26319;SDS011;14024;52.226;5.200;2023-05-20T00:41:12;19.75;;;7.00;;
26319;SDS011;14024;52.226;5.200;2023-05-20T00:43:38;18.33;;;7.15;;
26319;SDS011;14024;52.226;5.200;2023-05-20T00:46:04;17.15;;;6.80;;
26319;SDS011;14024;52.226;5.200;2023-05-20T00:48:32;18.80;;;6.85;;
26319;SDS011;14024;52.226;5.200;2023-05-20T00:51:02;15.50;;;6.80;;
26319;SDS011;14024;52.226;5.200;2023-05-20T00:53:28;12.38;;;7.10;;
26319;SDS011;14024;52.226;5.200;2023-05-20T00:55:54;18.90;;;7.22;;
26319;SDS011;14024;52.226;5.200;2023-05-20T00:58:21;18.35;;;8.23;;
26319;SDS011;14024;52.226;5.200;2023-05-20T01:00:47;18.58;;;6.97;;
26319;SDS011;14024;52.226;5.200;2023-05-20T01:03:13;14.85;;;7.72;;
26319;SDS011;14024;52.226;5.200;2023-05-20T01:05:40;19.50;;;7.85;;
26319;SDS011;14024;52.226;5.200;2023-05-20T01:08:06;13.77;;;7.00;;
26319;SDS011;14024;52.226;5.200;2023-05-20T01:10:32;17.98;;;7.30;;
26319;SDS011;14024;52.226;5.200;2023-05-20T01:13:00;12.25;;;6.80;;
26319;SDS011;14024;52.226;5.200;2023-05-20T01:15:30;14.63;;;7.15;;
26319;SDS011;14024;52.226;5.200;2023-05-20T01:17:57;16.15;;;7.22;;
26319;SDS011;14024;52.226;5.200;2023-05-20T01:20:26;17.90;;;7.25;;
26319;SDS011;14024;52.226;5.200;2023-05-20T01:22:53;17.98;;;7.80;;
26319;SDS011;14024;52.226;5.200;2023-05-20T01:25:19;28.42;;;7.45;;
26319;SDS011;14024;52.226;5.200;2023-05-20T01:27:46;14.07;;;7.70;;
26319;SDS011;14024;52.226;5.200;2023-05-20T01:30:14;21.35;;;7.32;;
26319;SDS011;14024;52.226;5.200;2023-05-20T01:32:41;13.25;;;7.18;;
26319;SDS011;14024;52.226;5.200;2023-05-20T01:35:08;17.98;;;7.97;;
26319;SDS011;14024;52.226;5.200;2023-05-20T01:37:38;20.25;;;7.65;;
26319;SDS011;14024;52.226;5.200;2023-05-20T01:40:08;18.00;;;8.07;;
26319;SDS011;14024;52.226;5.200;2023-05-20T01:42:34;24.65;;;7.65;;
26319;SDS011;14024;52.226;5.200;2023-05-20T01:45:00;19.58;;;7.10;;
26319;SDS011;14024;52.226;5.200;2023-05-20T01:47:27;20.13;;;7.13;;
26319;SDS011;14024;52.226;5.200;2023-05-20T01:49:53;18.70;;;7.57;;
26319;SDS011;14024;52.226;5.200;2023-05-20T01:52:19;18.27;;;6.70;;
26319;SDS011;14024;52.226;5.200;2023-05-20T01:54:45;14.75;;;7.05;;
26319;SDS011;14024;52.226;5.200;2023-05-20T01:57:16;16.60;;;7.50;;
26319;SDS011;14024;52.226;5.200;2023-05-20T01:59:42;20.80;;;7.72;;
26319;SDS011;14024;52.226;5.200;2023-05-20T02:02:08;18.58;;;7.32;;
26319;SDS011;14024;52.226;5.200;2023-05-20T02:04:34;18.67;;;7.85;;
26319;SDS011;14024;52.226;5.200;2023-05-20T02:07:00;16.60;;;8.35;;
26319;SDS011;14024;52.226;5.200;2023-05-20T02:09:26;15.10;;;6.53;;
26319;SDS011;14024;52.226;5.200;2023-05-20T02:11:52;22.45;;;8.20;;
26319;SDS011;14024;52.226;5.200;2023-05-20T02:14:18;17.90;;;7.57;;
26319;SDS011;14024;52.226;5.200;2023-05-20T02:16:45;24.15;;;7.82;;
26319;SDS011;14024;52.226;5.200;2023-05-20T02:19:11;16.10;;;7.72;;
26319;SDS011;14024;52.226;5.200;2023-05-20T02:21:40;13.40;;;7.38;;
26319;SDS011;14024;52.226;5.200;2023-05-20T02:24:07;20.38;;;8.70;;
26319;SDS011;14024;52.226;5.200;2023-05-20T02:26:34;17.75;;;7.28;;
26319;SDS011;14024;52.226;5.200;2023-05-20T02:29:00;17.13;;;7.10;;
26319;SDS011;14024;52.226;5.200;2023-05-20T02:31:26;16.13;;;7.28;;
26319;SDS011;14024;52.226;5.200;2023-05-20T02:33:52;20.65;;;7.60;;
26319;SDS011;14024;52.226;5.200;2023-05-20T02:36:18;12.15;;;7.40;;
26319;SDS011;14024;52.226;5.200;2023-05-20T02:38:44;16.42;;;6.90;;
26319;SDS011;14024;52.226;5.200;2023-05-20T02:41:10;17.88;;;7.28;;
26319;SDS011;14024;52.226;5.200;2023-05-20T02:43:36;19.58;;;7.40;;
26319;SDS011;14024;52.226;5.200;2023-05-20T02:46:02;19.58;;;8.05;;
26319;SDS011;14024;52.226;5.200;2023-05-20T02:48:28;17.13;;;7.60;;
26319;SDS011;14024;52.226;5.200;2023-05-20T02:50:54;17.58;;;8.10;;
26319;SDS011;14024;52.226;5.200;2023-05-20T02:53:20;14.65;;;7.28;;
26319;SDS011;14024;52.226;5.200;2023-05-20T02:55:46;16.40;;;7.18;;
26319;SDS011;14024;52.226;5.200;2023-05-20T02:58:13;19.58;;;7.35;;
26319;SDS011;14024;52.226;5.200;2023-05-20T03:00:39;14.80;;;6.95;;
26319;SDS011;14024;52.226;5.200;2023-05-20T03:03:05;15.25;;;6.75;;
26319;SDS011;14024;52.226;5.200;2023-05-20T03:05:32;14.27;;;7.00;;
26319;SDS011;14024;52.226;5.200;2023-05-20T03:08:01;24.60;;;6.80;;
26319;SDS011;14024;52.226;5.200;2023-05-20T03:10:27;20.25;;;7.68;;
26319;SDS011;14024;52.226;5.200;2023-05-20T03:12:53;15.13;;;7.05;;
26319;SDS011;14024;52.226;5.200;2023-05-20T03:15:19;13.43;;;6.80;;
26319;SDS011;14024;52.226;5.200;2023-05-20T03:17:45;19.55;;;7.88;;
26319;SDS011;14024;52.226;5.200;2023-05-20T03:20:11;17.48;;;7.45;;
26319;SDS011;14024;52.226;5.200;2023-05-20T03:22:38;17.40;;;7.43;;
26319;SDS011;14024;52.226;5.200;2023-05-20T03:25:04;15.55;;;7.05;;
26319;SDS011;14024;52.226;5.200;2023-05-20T03:27:30;19.30;;;7.00;;
26319;SDS011;14024;52.226;5.200;2023-05-20T03:29:56;20.65;;;7.68;;
26319;SDS011;14024;52.226;5.200;2023-05-20T03:32:22;18.58;;;7.20;;
26319;SDS011;14024;52.226;5.200;2023-05-20T03:34:48;21.95;;;7.45;;
26319;SDS011;14024;52.226;5.200;2023-05-20T03:37:14;11.13;;;6.63;;
26319;SDS011;14024;52.226;5.200;2023-05-20T03:39:40;16.50;;;6.65;;
26319;SDS011;14024;52.226;5.200;2023-05-20T03:42:06;14.52;;;6.88;;
26319;SDS011;14024;52.226;5.200;2023-05-20T03:44:32;17.15;;;7.40;;
26319;SDS011;14024;52.226;5.200;2023-05-20T03:46:58;17.55;;;6.75;;
26319;SDS011;14024;52.226;5.200;2023-05-20T03:49:24;15.85;;;6.60;;
26319;SDS011;14024;52.226;5.200;2023-05-20T03:51:50;16.25;;;6.88;;
26319;SDS011;14024;52.226;5.200;2023-05-20T03:54:16;16.30;;;7.32;;
26319;SDS011;14024;52.226;5.200;2023-05-20T03:56:41;17.80;;;6.80;;
26319;SDS011;14024;52.226;5.200;2023-05-20T03:59:08;13.82;;;6.93;;
26319;SDS011;14024;52.226;5.200;2023-05-20T04:01:34;15.13;;;7.50;;
26319;SDS011;14024;52.226;5.200;2023-05-20T04:04:01;16.02;;;6.88;;
26319;SDS011;14024;52.226;5.200;2023-05-20T04:06:27;12.38;;;7.03;;
26319;SDS011;14024;52.226;5.200;2023-05-20T04:08:53;17.90;;;7.70;;
26319;SDS011;14024;52.226;5.200;2023-05-20T04:11:19;16.38;;;7.40;;
26319;SDS011;14024;52.226;5.200;2023-05-20T04:13:45;21.45;;;8.05;;
26319;SDS011;14024;52.226;5.200;2023-05-20T04:16:11;15.98;;;6.70;;
26319;SDS011;14024;52.226;5.200;2023-05-20T04:18:37;19.15;;;7.18;;
26319;SDS011;14024;52.226;5.200;2023-05-20T04:21:03;12.50;;;6.90;;
26319;SDS011;14024;52.226;5.200;2023-05-20T04:23:29;16.73;;;6.97;;
26319;SDS011;14024;52.226;5.200;2023-05-20T04:25:55;14.07;;;7.57;;
26319;SDS011;14024;52.226;5.200;2023-05-20T04:28:26;23.27;;;7.40;;
26319;SDS011;14024;52.226;5.200;2023-05-20T04:31:01;17.48;;;7.47;;
26319;SDS011;14024;52.226;5.200;2023-05-20T04:33:28;15.80;;;7.38;;
26319;SDS011;14024;52.226;5.200;2023-05-20T04:35:54;21.88;;;6.40;;
26319;SDS011;14024;52.226;5.200;2023-05-20T04:38:23;16.83;;;7.85;;
26319;SDS011;14024;52.226;5.200;2023-05-20T04:40:53;18.20;;;7.40;;
26319;SDS011;14024;52.226;5.200;2023-05-20T04:43:21;14.15;;;7.00;;
26319;SDS011;14024;52.226;5.200;2023-05-20T04:45:47;14.15;;;7.55;;
26319;SDS011;14024;52.226;5.200;2023-05-20T04:48:13;20.13;;;7.38;;
26319;SDS011;14024;52.226;5.200;2023-05-20T04:50:39;14.57;;;6.70;;
26319;SDS011;14024;52.226;5.200;2023-05-20T04:53:06;15.10;;;7.22;;
26319;SDS011;14024;52.226;5.200;2023-05-20T04:55:32;13.60;;;6.55;;
26319;SDS011;14024;52.226;5.200;2023-05-20T04:58:01;17.63;;;8.15;;
26319;SDS011;14024;52.226;5.200;2023-05-20T05:00:27;16.65;;;7.75;;
26319;SDS011;14024;52.226;5.200;2023-05-20T05:02:54;18.58;;;7.43;;
26319;SDS011;14024;52.226;5.200;2023-05-20T05:05:20;18.40;;;6.57;;
26319;SDS011;14024;52.226;5.200;2023-05-20T05:07:46;16.02;;;7.30;;
26319;SDS011;14024;52.226;5.200;2023-05-20T05:10:12;16.48;;;7.03;;
26319;SDS011;14024;52.226;5.200;2023-05-20T05:12:39;15.82;;;7.05;;
26319;SDS011;14024;52.226;5.200;2023-05-20T05:15:05;16.75;;;7.50;;
26319;SDS011;14024;52.226;5.200;2023-05-20T05:17:31;22.90;;;7.03;;
26319;SDS011;14024;52.226;5.200;2023-05-20T05:19:57;15.70;;;6.93;;
26319;SDS011;14024;52.226;5.200;2023-05-20T05:22:23;18.75;;;7.18;;
26319;SDS011;14024;52.226;5.200;2023-05-20T05:24:49;20.90;;;7.07;;
26319;SDS011;14024;52.226;5.200;2023-05-20T05:27:16;17.42;;;6.85;;
26319;SDS011;14024;52.226;5.200;2023-05-20T05:29:42;13.75;;;7.15;;
26319;SDS011;14024;52.226;5.200;2023-05-20T05:32:08;10.30;;;5.97;;
26319;SDS011;14024;52.226;5.200;2023-05-20T05:34:34;14.10;;;7.47;;
26319;SDS011;14024;52.226;5.200;2023-05-20T05:37:00;19.70;;;7.40;;
26319;SDS011;14024;52.226;5.200;2023-05-20T05:39:26;16.77;;;7.30;;
26319;SDS011;14024;52.226;5.200;2023-05-20T05:41:52;12.77;;;6.53;;
26319;SDS011;14024;52.226;5.200;2023-05-20T05:44:18;14.80;;;7.25;;
26319;SDS011;14024;52.226;5.200;2023-05-20T05:46:44;12.48;;;6.63;;
26319;SDS011;14024;52.226;5.200;2023-05-20T05:49:10;14.68;;;6.38;;
26319;SDS011;14024;52.226;5.200;2023-05-20T05:51:36;16.15;;;6.80;;
26319;SDS011;14024;52.226;5.200;2023-05-20T05:54:02;12.50;;;7.20;;
26319;SDS011;14024;52.226;5.200;2023-05-20T05:56:28;17.65;;;7.28;;
26319;SDS011;14024;52.226;5.200;2023-05-20T05:58:54;15.55;;;7.18;;
26319;SDS011;14024;52.226;5.200;2023-05-20T06:01:20;16.40;;;7.38;;
26319;SDS011;14024;52.226;5.200;2023-05-20T06:03:46;16.70;;;7.25;;
26319;SDS011;14024;52.226;5.200;2023-05-20T06:06:12;19.95;;;7.57;;
26319;SDS011;14024;52.226;5.200;2023-05-20T06:08:39;15.68;;;7.85;;
26319;SDS011;14024;52.226;5.200;2023-05-20T06:11:04;20.70;;;7.05;;
26319;SDS011;14024;52.226;5.200;2023-05-20T06:13:30;13.48;;;6.40;;
26319;SDS011;14024;52.226;5.200;2023-05-20T06:15:56;16.15;;;6.68;;
26319;SDS011;14024;52.226;5.200;2023-05-20T06:18:22;11.50;;;6.45;;
26319;SDS011;14024;52.226;5.200;2023-05-20T06:20:57;13.52;;;6.35;;
26319;SDS011;14024;52.226;5.200;2023-05-20T06:23:24;12.38;;;5.95;;
26319;SDS011;14024;52.226;5.200;2023-05-20T06:25:50;12.95;;;6.57;;
26319;SDS011;14024;52.226;5.200;2023-05-20T06:28:16;17.90;;;7.40;;
26319;SDS011;14024;52.226;5.200;2023-05-20T06:30:42;15.60;;;7.28;;
26319;SDS011;14024;52.226;5.200;2023-05-20T06:33:08;11.60;;;5.97;;
26319;SDS011;14024;52.226;5.200;2023-05-20T06:35:35;17.50;;;6.45;;
26319;SDS011;14024;52.226;5.200;2023-05-20T06:38:01;19.63;;;6.90;;
26319;SDS011;14024;52.226;5.200;2023-05-20T06:40:27;15.38;;;6.60;;
26319;SDS011;14024;52.226;5.200;2023-05-20T06:42:53;11.30;;;6.60;;
26319;SDS011;14024;52.226;5.200;2023-05-20T06:45:19;11.48;;;6.32;;
26319;SDS011;14024;52.226;5.200;2023-05-20T06:47:45;13.18;;;6.47;;
26319;SDS011;14024;52.226;5.200;2023-05-20T06:50:13;14.18;;;6.13;;
26319;SDS011;14024;52.226;5.200;2023-05-20T06:52:39;13.23;;;6.55;;
26319;SDS011;14024;52.226;5.200;2023-05-20T06:55:06;12.77;;;5.97;;
26319;SDS011;14024;52.226;5.200;2023-05-20T06:57:32;16.05;;;6.63;;
26319;SDS011;14024;52.226;5.200;2023-05-20T06:59:58;9.52;;;6.07;;
26319;SDS011;14024;52.226;5.200;2023-05-20T07:02:24;13.60;;;6.22;;
26319;SDS011;14024;52.226;5.200;2023-05-20T07:04:50;12.85;;;6.93;;
26319;SDS011;14024;52.226;5.200;2023-05-20T07:07:16;13.25;;;6.05;;
26319;SDS011;14024;52.226;5.200;2023-05-20T07:09:42;11.18;;;6.05;;
26319;SDS011;14024;52.226;5.200;2023-05-20T07:12:08;12.52;;;6.50;;
26319;SDS011;14024;52.226;5.200;2023-05-20T07:14:34;12.55;;;6.28;;
26319;SDS011;14024;52.226;5.200;2023-05-20T07:17:00;12.90;;;6.35;;
26319;SDS011;14024;52.226;5.200;2023-05-20T07:19:26;11.98;;;5.70;;
26319;SDS011;14024;52.226;5.200;2023-05-20T07:21:52;11.45;;;6.10;;
26319;SDS011;14024;52.226;5.200;2023-05-20T07:24:18;10.38;;;5.70;;
26319;SDS011;14024;52.226;5.200;2023-05-20T07:26:44;11.60;;;5.47;;
26319;SDS011;14024;52.226;5.200;2023-05-20T07:29:10;15.85;;;6.80;;
26319;SDS011;14024;52.226;5.200;2023-05-20T07:31:36;10.55;;;5.93;;
26319;SDS011;14024;52.226;5.200;2023-05-20T07:34:02;16.20;;;5.40;;
26319;SDS011;14024;52.226;5.200;2023-05-20T07:36:28;13.40;;;6.70;;
26319;SDS011;14024;52.226;5.200;2023-05-20T07:38:54;11.50;;;5.88;;
26319;SDS011;14024;52.226;5.200;2023-05-20T07:41:20;13.98;;;5.82;;
26319;SDS011;14024;52.226;5.200;2023-05-20T07:43:47;16.15;;;5.70;;
26319;SDS011;14024;52.226;5.200;2023-05-20T07:46:14;13.25;;;5.97;;
26319;SDS011;14024;52.226;5.200;2023-05-20T07:48:40;11.32;;;5.07;;
26319;SDS011;14024;52.226;5.200;2023-05-20T07:51:06;13.68;;;6.18;;
26319;SDS011;14024;52.226;5.200;2023-05-20T07:53:32;10.50;;;6.13;;
26319;SDS011;14024;52.226;5.200;2023-05-20T07:55:58;12.20;;;5.82;;
26319;SDS011;14024;52.226;5.200;2023-05-20T07:58:24;10.93;;;5.93;;
26319;SDS011;14024;52.226;5.200;2023-05-20T08:00:50;9.30;;;5.72;;
26319;SDS011;14024;52.226;5.200;2023-05-20T08:03:16;9.25;;;5.60;;
26319;SDS011;14024;52.226;5.200;2023-05-20T08:05:43;10.18;;;5.18;;
26319;SDS011;14024;52.226;5.200;2023-05-20T08:08:09;9.07;;;4.78;;
26319;SDS011;14024;52.226;5.200;2023-05-20T08:10:35;9.90;;;5.00;;
26319;SDS011;14024;52.226;5.200;2023-05-20T08:13:01;14.63;;;5.20;;
26319;SDS011;14024;52.226;5.200;2023-05-20T08:15:27;9.75;;;5.28;;
26319;SDS011;14024;52.226;5.200;2023-05-20T08:17:53;8.90;;;4.78;;
26319;SDS011;14024;52.226;5.200;2023-05-20T08:20:19;12.93;;;5.05;;
26319;SDS011;14024;52.226;5.200;2023-05-20T08:22:45;11.90;;;4.65;;
26319;SDS011;14024;52.226;5.200;2023-05-20T08:25:11;10.07;;;4.60;;
26319;SDS011;14024;52.226;5.200;2023-05-20T08:27:38;7.82;;;4.82;;
26319;SDS011;14024;52.226;5.200;2023-05-20T08:30:05;14.60;;;4.47;;
26319;SDS011;14024;52.226;5.200;2023-05-20T08:32:33;13.30;;;4.40;;
26319;SDS011;14024;52.226;5.200;2023-05-20T08:34:59;5.20;;;3.83;;
26319;SDS011;14024;52.226;5.200;2023-05-20T08:37:26;6.82;;;4.13;;
26319;SDS011;14024;52.226;5.200;2023-05-20T08:39:53;8.52;;;3.58;;
26319;SDS011;14024;52.226;5.200;2023-05-20T08:42:22;9.73;;;3.88;;
26319;SDS011;14024;52.226;5.200;2023-05-20T08:44:51;8.10;;;4.03;;
26319;SDS011;14024;52.226;5.200;2023-05-20T08:47:19;9.85;;;3.90;;
26319;SDS011;14024;52.226;5.200;2023-05-20T08:49:48;10.35;;;3.92;;
26319;SDS011;14024;52.226;5.200;2023-05-20T08:52:15;7.07;;;3.65;;
26319;SDS011;14024;52.226;5.200;2023-05-20T08:54:46;7.70;;;3.50;;
26319;SDS011;14024;52.226;5.200;2023-05-20T08:57:13;6.57;;;3.22;;
26319;SDS011;14024;52.226;5.200;2023-05-20T08:59:40;11.45;;;4.35;;
26319;SDS011;14024;52.226;5.200;2023-05-20T09:02:09;7.65;;;3.63;;
26319;SDS011;14024;52.226;5.200;2023-05-20T09:04:36;10.93;;;3.10;;
26319;SDS011;14024;52.226;5.200;2023-05-20T09:07:02;4.13;;;3.15;;
26319;SDS011;14024;52.226;5.200;2023-05-20T09:09:29;7.55;;;3.38;;
26319;SDS011;14024;52.226;5.200;2023-05-20T09:11:55;7.50;;;3.25;;
26319;SDS011;14024;52.226;5.200;2023-05-20T09:14:21;8.38;;;3.38;;
26319;SDS011;14024;52.226;5.200;2023-05-20T09:16:53;5.65;;;3.30;;
26319;SDS011;14024;52.226;5.200;2023-05-20T09:19:21;7.60;;;3.35;;
26319;SDS011;14024;52.226;5.200;2023-05-20T09:21:47;10.30;;;3.58;;
26319;SDS011;14024;52.226;5.200;2023-05-20T09:24:13;6.30;;;3.10;;
26319;SDS011;14024;52.226;5.200;2023-05-20T09:26:39;5.10;;;3.00;;
26319;SDS011;14024;52.226;5.200;2023-05-20T09:29:05;10.45;;;3.33;;
26319;SDS011;14024;52.226;5.200;2023-05-20T09:31:32;12.68;;;3.30;;
26319;SDS011;14024;52.226;5.200;2023-05-20T09:33:59;7.80;;;3.28;;
26319;SDS011;14024;52.226;5.200;2023-05-20T09:36:27;7.65;;;2.90;;
26319;SDS011;14024;52.226;5.200;2023-05-20T09:38:53;4.55;;;2.47;;
26319;SDS011;14024;52.226;5.200;2023-05-20T09:41:23;5.07;;;2.83;;
26319;SDS011;14024;52.226;5.200;2023-05-20T09:43:51;11.90;;;3.13;;
26319;SDS011;14024;52.226;5.200;2023-05-20T09:46:17;9.02;;;2.63;;
26319;SDS011;14024;52.226;5.200;2023-05-20T09:48:44;11.32;;;3.20;;
26319;SDS011;14024;52.226;5.200;2023-05-20T09:51:10;6.85;;;2.70;;
26319;SDS011;14024;52.226;5.200;2023-05-20T09:53:37;7.07;;;2.97;;
26319;SDS011;14024;52.226;5.200;2023-05-20T09:56:03;6.65;;;3.00;;
26319;SDS011;14024;52.226;5.200;2023-05-20T09:58:29;10.45;;;2.40;;
26319;SDS011;14024;52.226;5.200;2023-05-20T10:00:55;10.95;;;3.10;;
26319;SDS011;14024;52.226;5.200;2023-05-20T10:03:21;5.15;;;2.80;;
26319;SDS011;14024;52.226;5.200;2023-05-20T10:08:30;12.15;;;2.92;;
26319;SDS011;14024;52.226;5.200;2023-05-20T10:11:12;8.70;;;3.40;;
26319;SDS011;14024;52.226;5.200;2023-05-20T10:19:31;4.13;;;3.10;;
26319;SDS011;14024;52.226;5.200;2023-05-20T10:21:58;9.85;;;3.25;;
26319;SDS011;14024;52.226;5.200;2023-05-20T10:24:28;14.73;;;3.00;;
26319;SDS011;14024;52.226;5.200;2023-05-20T10:26:56;8.30;;;2.97;;
26319;SDS011;14024;52.226;5.200;2023-05-20T10:29:22;8.90;;;3.30;;
26319;SDS011;14024;52.226;5.200;2023-05-20T10:31:51;8.45;;;2.90;;
26319;SDS011;14024;52.226;5.200;2023-05-20T10:34:18;6.03;;;3.03;;
26319;SDS011;14024;52.226;5.200;2023-05-20T10:39:24;8.90;;;3.95;;
26319;SDS011;14024;52.226;5.200;2023-05-20T10:41:51;7.40;;;3.25;;
26319;SDS011;14024;52.226;5.200;2023-05-20T10:44:17;11.43;;;3.78;;
26319;SDS011;14024;52.226;5.200;2023-05-20T10:46:43;6.13;;;2.88;;
26319;SDS011;14024;52.226;5.200;2023-05-20T10:49:16;4.43;;;2.85;;
26319;SDS011;14024;52.226;5.200;2023-05-20T10:51:43;7.07;;;2.78;;
26319;SDS011;14024;52.226;5.200;2023-05-20T10:54:09;7.05;;;2.85;;
26319;SDS011;14024;52.226;5.200;2023-05-20T10:56:35;8.35;;;2.78;;
26319;SDS011;14024;52.226;5.200;2023-05-20T10:59:01;6.60;;;3.17;;
26319;SDS011;14024;52.226;5.200;2023-05-20T11:01:27;7.60;;;3.10;;
26319;SDS011;14024;52.226;5.200;2023-05-20T11:03:54;4.70;;;3.08;;
26319;SDS011;14024;52.226;5.200;2023-05-20T11:06:24;6.03;;;2.88;;
26319;SDS011;14024;52.226;5.200;2023-05-20T11:08:52;10.18;;;2.80;;
26319;SDS011;14024;52.226;5.200;2023-05-20T11:11:18;4.97;;;3.03;;
26319;SDS011;14024;52.226;5.200;2023-05-20T11:13:44;5.38;;;2.85;;
26319;SDS011;14024;52.226;5.200;2023-05-20T11:16:10;10.65;;;3.05;;
26319;SDS011;14024;52.226;5.200;2023-05-20T11:18:36;8.13;;;3.10;;
26319;SDS011;14024;52.226;5.200;2023-05-20T11:21:02;3.28;;;2.58;;
26319;SDS011;14024;52.226;5.200;2023-05-20T11:23:28;5.78;;;2.63;;
26319;SDS011;14024;52.226;5.200;2023-05-20T11:25:55;6.53;;;2.75;;
26319;SDS011;14024;52.226;5.200;2023-05-20T11:28:22;5.38;;;2.70;;
26319;SDS011;14024;52.226;5.200;2023-05-20T11:30:48;4.70;;;2.75;;
26319;SDS011;14024;52.226;5.200;2023-05-20T11:33:15;6.35;;;3.10;;
26319;SDS011;14024;52.226;5.200;2023-05-20T11:35:45;5.45;;;2.80;;
26319;SDS011;14024;52.226;5.200;2023-05-20T11:38:11;7.57;;;3.10;;
26319;SDS011;14024;52.226;5.200;2023-05-20T11:40:41;7.25;;;2.80;;
26319;SDS011;14024;52.226;5.200;2023-05-20T11:43:09;9.70;;;3.17;;
26319;SDS011;14024;52.226;5.200;2023-05-20T11:45:42;4.50;;;2.85;;
26319;SDS011;14024;52.226;5.200;2023-05-20T11:48:09;4.80;;;2.97;;
26319;SDS011;14024;52.226;5.200;2023-05-20T11:50:37;8.93;;;3.08;;
26319;SDS011;14024;52.226;5.200;2023-05-20T11:53:05;7.15;;;2.80;;
26319;SDS011;14024;52.226;5.200;2023-05-20T11:55:31;6.75;;;3.13;;
26319;SDS011;14024;52.226;5.200;2023-05-20T11:57:57;5.93;;;2.78;;
26319;SDS011;14024;52.226;5.200;2023-05-20T12:00:23;6.63;;;3.20;;
26319;SDS011;14024;52.226;5.200;2023-05-20T12:02:50;10.52;;;3.13;;
26319;SDS011;14024;52.226;5.200;2023-05-20T12:05:15;7.53;;;2.90;;
26319;SDS011;14024;52.226;5.200;2023-05-20T12:07:42;13.32;;;2.90;;
26319;SDS011;14024;52.226;5.200;2023-05-20T12:10:08;5.82;;;2.72;;
26319;SDS011;14024;52.226;5.200;2023-05-20T12:12:34;9.20;;;3.30;;
26319;SDS011;14024;52.226;5.200;2023-05-20T12:15:01;12.27;;;3.05;;
26319;SDS011;14024;52.226;5.200;2023-05-20T12:17:27;14.25;;;2.78;;
26319;SDS011;14024;52.226;5.200;2023-05-20T12:19:53;6.45;;;2.78;;
26319;SDS011;14024;52.226;5.200;2023-05-20T12:22:19;4.57;;;2.83;;
26319;SDS011;14024;52.226;5.200;2023-05-20T12:24:45;8.63;;;3.13;;
26319;SDS011;14024;52.226;5.200;2023-05-20T12:27:11;6.70;;;2.67;;
26319;SDS011;14024;52.226;5.200;2023-05-20T12:29:37;4.32;;;2.65;;
26319;SDS011;14024;52.226;5.200;2023-05-20T12:32:03;7.88;;;2.83;;
26319;SDS011;14024;52.226;5.200;2023-05-20T12:34:29;4.75;;;2.67;;
26319;SDS011;14024;52.226;5.200;2023-05-20T12:36:57;7.28;;;2.75;;
26319;SDS011;14024;52.226;5.200;2023-05-20T12:39:22;6.68;;;2.53;;
26319;SDS011;14024;52.226;5.200;2023-05-20T12:41:48;5.93;;;2.90;;
26319;SDS011;14024;52.226;5.200;2023-05-20T12:44:14;7.10;;;2.97;;
26319;SDS011;14024;52.226;5.200;2023-05-20T12:46:40;7.35;;;2.83;;
26319;SDS011;14024;52.226;5.200;2023-05-20T12:49:06;3.65;;;2.30;;
26319;SDS011;14024;52.226;5.200;2023-05-20T12:51:32;4.60;;;2.53;;
26319;SDS011;14024;52.226;5.200;2023-05-20T12:53:58;12.52;;;2.65;;
26319;SDS011;14024;52.226;5.200;2023-05-20T12:56:24;5.78;;;2.70;;
26319;SDS011;14024;52.226;5.200;2023-05-20T12:58:51;7.07;;;2.70;;
26319;SDS011;14024;52.226;5.200;2023-05-20T13:01:17;5.90;;;2.83;;
26319;SDS011;14024;52.226;5.200;2023-05-20T13:03:43;8.18;;;2.55;;
26319;SDS011;14024;52.226;5.200;2023-05-20T13:06:09;11.23;;;2.90;;
26319;SDS011;14024;52.226;5.200;2023-05-20T13:08:35;5.50;;;2.60;;
26319;SDS011;14024;52.226;5.200;2023-05-20T13:11:01;4.47;;;2.42;;
26319;SDS011;14024;52.226;5.200;2023-05-20T13:13:27;4.55;;;2.42;;
26319;SDS011;14024;52.226;5.200;2023-05-20T13:15:53;12.45;;;2.90;;
26319;SDS011;14024;52.226;5.200;2023-05-20T13:18:19;5.88;;;2.55;;
26319;SDS011;14024;52.226;5.200;2023-05-20T13:20:45;4.30;;;2.60;;
26319;SDS011;14024;52.226;5.200;2023-05-20T13:23:11;6.57;;;2.40;;
26319;SDS011;14024;52.226;5.200;2023-05-20T13:25:37;6.95;;;2.50;;
26319;SDS011;14024;52.226;5.200;2023-05-20T13:28:04;6.18;;;2.50;;
26319;SDS011;14024;52.226;5.200;2023-05-20T13:30:30;4.20;;;2.40;;
26319;SDS011;14024;52.226;5.200;2023-05-20T13:32:56;5.05;;;2.40;;
26319;SDS011;14024;52.226;5.200;2023-05-20T13:35:22;13.45;;;2.78;;
26319;SDS011;14024;52.226;5.200;2023-05-20T13:37:48;7.00;;;2.63;;
26319;SDS011;14024;52.226;5.200;2023-05-20T13:40:14;5.28;;;2.95;;
26319;SDS011;14024;52.226;5.200;2023-05-20T13:42:40;13.45;;;2.72;;
26319;SDS011;14024;52.226;5.200;2023-05-20T13:45:06;4.55;;;3.15;;
26319;SDS011;14024;52.226;5.200;2023-05-20T13:47:32;10.75;;;3.00;;
26319;SDS011;14024;52.226;5.200;2023-05-20T13:49:58;6.25;;;2.55;;
26319;SDS011;14024;52.226;5.200;2023-05-20T13:52:24;4.32;;;2.28;;
26319;SDS011;14024;52.226;5.200;2023-05-20T13:54:50;4.22;;;2.30;;
26319;SDS011;14024;52.226;5.200;2023-05-20T13:57:16;7.32;;;3.10;;
26319;SDS011;14024;52.226;5.200;2023-05-20T13:59:42;5.78;;;2.67;;
26319;SDS011;14024;52.226;5.200;2023-05-20T14:02:08;3.00;;;2.15;;
26319;SDS011;14024;52.226;5.200;2023-05-20T14:04:34;7.43;;;2.53;;
26319;SDS011;14024;52.226;5.200;2023-05-20T14:07:03;4.90;;;2.75;;
26319;SDS011;14024;52.226;5.200;2023-05-20T14:09:30;7.63;;;2.78;;
26319;SDS011;14024;52.226;5.200;2023-05-20T14:11:56;4.82;;;2.78;;
26319;SDS011;14024;52.226;5.200;2023-05-20T14:14:22;3.22;;;2.70;;
26319;SDS011;14024;52.226;5.200;2023-05-20T14:16:48;4.63;;;2.70;;
26319;SDS011;14024;52.226;5.200;2023-05-20T14:19:14;2.85;;;2.20;;
26319;SDS011;14024;52.226;5.200;2023-05-20T14:21:40;8.50;;;2.67;;
26319;SDS011;14024;52.226;5.200;2023-05-20T14:24:06;7.32;;;2.50;;
26319;SDS011;14024;52.226;5.200;2023-05-20T14:26:32;6.25;;;2.50;;
26319;SDS011;14024;52.226;5.200;2023-05-20T14:29:00;5.05;;;2.40;;
26319;SDS011;14024;52.226;5.200;2023-05-20T14:31:26;6.60;;;2.70;;
26319;SDS011;14024;52.226;5.200;2023-05-20T14:33:52;3.40;;;2.55;;
26319;SDS011;14024;52.226;5.200;2023-05-20T14:36:18;3.63;;;2.50;;
26319;SDS011;14024;52.226;5.200;2023-05-20T14:38:44;4.07;;;2.60;;
26319;SDS011;14024;52.226;5.200;2023-05-20T14:41:10;6.30;;;2.90;;
26319;SDS011;14024;52.226;5.200;2023-05-20T14:43:36;4.45;;;2.78;;
26319;SDS011;14024;52.226;5.200;2023-05-20T14:46:03;3.42;;;2.70;;